sensor_id;sensor_type;location;lat;lon;timestamp;pressure;altitude;pressure_sealevel;temperature;humidity
51468;BME280;37545;45.302;-122.946;2023-06-26T00:00:02;100874.94;;;32.36;24.86
51468;BME280;37545;45.302;-122.946;2023-06-26T00:02:32;100873.50;;;32.30;24.58
51468;BME280;37545;45.302;-122.946;2023-06-26T00:05:00;100867.38;;;32.28;25.78
51468;BME280;37545;45.302;-122.946;2023-06-26T00:07:30;100872.66;;;32.30;26.49
51468;BME280;37545;45.302;-122.946;2023-06-26T00:10:00;100871.50;;;32.34;26.01
51468;BME280;37545;45.302;-122.946;2023-06-26T00:12:33;100874.28;;;32.32;25.25
51468;BME280;37545;45.302;-122.946;2023-06-26T00:15:04;100865.00;;;32.38;25.71
51468;BME280;37545;45.302;-122.946;2023-06-26T00:17:34;100871.81;;;32.44;24.94
51468;BME280;37545;45.302;-122.946;2023-06-26T00:20:07;100862.81;;;32.45;25.45
51468;BME280;37545;45.302;-122.946;2023-06-26T00:22:36;100862.59;;;32.33;26.07
51468;BME280;37545;45.302;-122.946;2023-06-26T00:25:07;100872.25;;;32.22;25.84
51468;BME280;37545;45.302;-122.946;2023-06-26T00:27:36;100859.72;;;32.22;26.13
51468;BME280;37545;45.302;-122.946;2023-06-26T00:30:10;100856.84;;;32.25;24.81
51468;BME280;37545;45.302;-122.946;2023-06-26T00:32:38;100854.94;;;32.27;25.89
51468;BME280;37545;45.302;-122.946;2023-06-26T00:35:07;100860.28;;;32.27;25.94
51468;BME280;37545;45.302;-122.946;2023-06-26T00:37:36;100855.13;;;32.24;25.08
51468;BME280;37545;45.302;-122.946;2023-06-26T00:40:05;100860.47;;;32.24;25.80
51468;BME280;37545;45.302;-122.946;2023-06-26T00:42:34;100858.53;;;32.12;26.01
51468;BME280;37545;45.302;-122.946;2023-06-26T00:45:03;100853.91;;;32.00;25.74
51468;BME280;37545;45.302;-122.946;2023-06-26T00:47:33;100849.50;;;31.83;26.04
51468;BME280;37545;45.302;-122.946;2023-06-26T00:50:05;100850.31;;;31.69;26.77
51468;BME280;37545;45.302;-122.946;2023-06-26T00:52:37;100859.53;;;31.63;26.71
51468;BME280;37545;45.302;-122.946;2023-06-26T00:55:06;100851.09;;;31.55;26.46
51468;BME280;37545;45.302;-122.946;2023-06-26T00:57:35;100845.72;;;31.39;26.11
51468;BME280;37545;45.302;-122.946;2023-06-26T01:00:05;100847.94;;;31.31;27.28
51468;BME280;37545;45.302;-122.946;2023-06-26T01:02:38;100852.09;;;31.37;27.56
51468;BME280;37545;45.302;-122.946;2023-06-26T01:05:08;100851.13;;;31.38;26.64
51468;BME280;37545;45.302;-122.946;2023-06-26T01:07:39;100848.66;;;31.35;27.87
51468;BME280;37545;45.302;-122.946;2023-06-26T01:10:08;100839.50;;;31.23;27.81
51468;BME280;37545;45.302;-122.946;2023-06-26T01:12:37;100846.75;;;31.21;27.83
51468;BME280;37545;45.302;-122.946;2023-06-26T01:15:07;100841.91;;;31.12;27.70
51468;BME280;37545;45.302;-122.946;2023-06-26T01:17:40;100842.09;;;31.08;27.47
51468;BME280;37545;45.302;-122.946;2023-06-26T01:20:12;100843.03;;;31.07;27.04
51468;BME280;37545;45.302;-122.946;2023-06-26T01:22:48;100838.28;;;31.13;27.31
51468;BME280;37545;45.302;-122.946;2023-06-26T01:25:28;100847.94;;;31.15;27.14
51468;BME280;37545;45.302;-122.946;2023-06-26T01:28:07;100843.47;;;31.16;26.55
51468;BME280;37545;45.302;-122.946;2023-06-26T01:30:38;100848.81;;;31.16;28.10
51468;BME280;37545;45.302;-122.946;2023-06-26T01:33:08;100842.16;;;31.07;27.95
51468;BME280;37545;45.302;-122.946;2023-06-26T01:35:41;100845.94;;;31.03;28.11
51468;BME280;37545;45.302;-122.946;2023-06-26T01:38:13;100840.94;;;30.97;27.84
51468;BME280;37545;45.302;-122.946;2023-06-26T01:40:44;100850.22;;;30.89;27.89
51468;BME280;37545;45.302;-122.946;2023-06-26T01:43:19;100851.41;;;30.84;28.85
51468;BME280;37545;45.302;-122.946;2023-06-26T01:45:51;100853.53;;;30.77;28.90
51468;BME280;37545;45.302;-122.946;2023-06-26T01:48:26;100856.63;;;30.69;28.20
51468;BME280;37545;45.302;-122.946;2023-06-26T01:50:58;100857.88;;;30.62;28.03
51468;BME280;37545;45.302;-122.946;2023-06-26T01:53:35;100859.13;;;30.55;28.58
51468;BME280;37545;45.302;-122.946;2023-06-26T01:56:08;100856.88;;;30.47;28.53
51468;BME280;37545;45.302;-122.946;2023-06-26T01:58:43;100853.06;;;30.36;29.33
51468;BME280;37545;45.302;-122.946;2023-06-26T02:01:12;100853.56;;;30.25;29.88
51468;BME280;37545;45.302;-122.946;2023-06-26T02:03:41;100858.28;;;30.20;29.64
51468;BME280;37545;45.302;-122.946;2023-06-26T02:06:10;100853.97;;;30.17;29.03
51468;BME280;37545;45.302;-122.946;2023-06-26T02:08:38;100847.22;;;30.10;29.79
51468;BME280;37545;45.302;-122.946;2023-06-26T02:11:07;100862.44;;;30.08;29.59
51468;BME280;37545;45.302;-122.946;2023-06-26T02:13:36;100865.41;;;30.02;29.66
51468;BME280;37545;45.302;-122.946;2023-06-26T02:16:06;100858.81;;;29.92;30.33
51468;BME280;37545;45.302;-122.946;2023-06-26T02:18:35;100869.16;;;29.80;29.93
51468;BME280;37545;45.302;-122.946;2023-06-26T02:21:06;100861.72;;;29.68;29.39
51468;BME280;37545;45.302;-122.946;2023-06-26T02:23:35;100869.22;;;29.60;29.98
51468;BME280;37545;45.302;-122.946;2023-06-26T02:26:04;100873.97;;;29.53;30.16
51468;BME280;37545;45.302;-122.946;2023-06-26T02:28:33;100877.28;;;29.39;30.20
51468;BME280;37545;45.302;-122.946;2023-06-26T02:31:02;100878.66;;;29.29;30.86
51468;BME280;37545;45.302;-122.946;2023-06-26T02:33:32;100866.75;;;29.17;30.56
51468;BME280;37545;45.302;-122.946;2023-06-26T02:36:01;100883.56;;;28.99;29.95
51468;BME280;37545;45.302;-122.946;2023-06-26T02:38:30;100887.59;;;28.89;31.14
51468;BME280;37545;45.302;-122.946;2023-06-26T02:40:58;100880.88;;;28.80;31.59
51468;BME280;37545;45.302;-122.946;2023-06-26T02:43:27;100883.78;;;28.74;31.29
51468;BME280;37545;45.302;-122.946;2023-06-26T02:45:56;100888.06;;;28.57;31.14
51468;BME280;37545;45.302;-122.946;2023-06-26T02:48:25;100885.13;;;28.43;31.13
51468;BME280;37545;45.302;-122.946;2023-06-26T02:50:56;100886.56;;;28.30;31.42
51468;BME280;37545;45.302;-122.946;2023-06-26T02:53:24;100889.03;;;28.12;32.18
51468;BME280;37545;45.302;-122.946;2023-06-26T02:55:53;100898.34;;;28.02;32.34
51468;BME280;37545;45.302;-122.946;2023-06-26T02:58:22;100894.22;;;27.95;31.94
51468;BME280;37545;45.302;-122.946;2023-06-26T03:00:50;100888.28;;;27.88;32.29
51468;BME280;37545;45.302;-122.946;2023-06-26T03:03:20;100885.06;;;27.78;32.29
51468;BME280;37545;45.302;-122.946;2023-06-26T03:05:49;100889.97;;;27.67;32.58
51468;BME280;37545;45.302;-122.946;2023-06-26T03:08:19;100891.19;;;27.58;32.60
51468;BME280;37545;45.302;-122.946;2023-06-26T03:10:47;100891.38;;;27.54;32.96
51468;BME280;37545;45.302;-122.946;2023-06-26T03:13:16;100891.56;;;27.49;32.72
51468;BME280;37545;45.302;-122.946;2023-06-26T03:15:45;100893.69;;;27.40;32.12
51468;BME280;37545;45.302;-122.946;2023-06-26T03:18:14;100897.69;;;27.28;32.65
51468;BME280;37545;45.302;-122.946;2023-06-26T03:20:43;100898.13;;;27.15;31.57
51468;BME280;37545;45.302;-122.946;2023-06-26T03:23:12;100894.00;;;27.07;31.79
51468;BME280;37545;45.302;-122.946;2023-06-26T03:25:42;100899.59;;;26.99;31.57
51468;BME280;37545;45.302;-122.946;2023-06-26T03:28:11;100900.81;;;26.90;31.78
51468;BME280;37545;45.302;-122.946;2023-06-26T03:30:39;100906.50;;;26.80;32.21
51468;BME280;37545;45.302;-122.946;2023-06-26T03:33:08;100905.91;;;26.71;31.81
51468;BME280;37545;45.302;-122.946;2023-06-26T03:35:37;100908.94;;;26.61;32.72
51468;BME280;37545;45.302;-122.946;2023-06-26T03:38:06;100909.25;;;26.50;32.31
51468;BME280;37545;45.302;-122.946;2023-06-26T03:40:35;100911.47;;;26.37;31.47
51468;BME280;37545;45.302;-122.946;2023-06-26T03:43:14;100917.28;;;26.22;31.75
51468;BME280;37545;45.302;-122.946;2023-06-26T03:45:42;100916.78;;;26.10;31.84
51468;BME280;37545;45.302;-122.946;2023-06-26T03:48:11;100918.84;;;26.01;32.06
51468;BME280;37545;45.302;-122.946;2023-06-26T03:50:40;100924.50;;;25.90;31.52
51468;BME280;37545;45.302;-122.946;2023-06-26T03:53:09;100930.22;;;25.75;30.77
51468;BME280;37545;45.302;-122.946;2023-06-26T03:55:37;100925.22;;;25.65;30.16
51468;BME280;37545;45.302;-122.946;2023-06-26T03:58:06;100925.50;;;25.56;28.86
51468;BME280;37545;45.302;-122.946;2023-06-26T04:00:36;100925.88;;;25.44;29.51
51468;BME280;37545;45.302;-122.946;2023-06-26T04:03:05;100927.94;;;25.34;29.71
51468;BME280;37545;45.302;-122.946;2023-06-26T04:05:33;100925.53;;;25.25;29.12
51468;BME280;37545;45.302;-122.946;2023-06-26T04:08:02;100929.28;;;25.16;28.75
51468;BME280;37545;45.302;-122.946;2023-06-26T04:10:31;100928.72;;;25.05;28.84
51468;BME280;37545;45.302;-122.946;2023-06-26T04:13:06;100928.13;;;24.94;27.77
51468;BME280;37545;45.302;-122.946;2023-06-26T04:15:39;100930.94;;;24.87;28.49
51468;BME280;37545;45.302;-122.946;2023-06-26T04:18:08;100935.50;;;24.82;28.58
51468;BME280;37545;45.302;-122.946;2023-06-26T04:20:39;100944.41;;;24.78;29.03
51468;BME280;37545;45.302;-122.946;2023-06-26T04:23:11;100947.16;;;24.75;29.56
51468;BME280;37545;45.302;-122.946;2023-06-26T04:25:42;100933.44;;;24.61;29.48
51468;BME280;37545;45.302;-122.946;2023-06-26T04:28:11;100951.81;;;24.67;29.58
51468;BME280;37545;45.302;-122.946;2023-06-26T04:30:41;100958.91;;;24.65;29.08
51468;BME280;37545;45.302;-122.946;2023-06-26T04:33:10;100974.09;;;24.57;28.90
51468;BME280;37545;45.302;-122.946;2023-06-26T04:35:39;100977.81;;;24.50;29.04
51468;BME280;37545;45.302;-122.946;2023-06-26T04:38:11;100984.03;;;24.45;29.99
51468;BME280;37545;45.302;-122.946;2023-06-26T04:40:40;100981.47;;;24.42;31.63
51468;BME280;37545;45.302;-122.946;2023-06-26T04:43:09;100990.38;;;24.38;30.32
51468;BME280;37545;45.302;-122.946;2023-06-26T04:45:37;100988.78;;;24.33;29.13
51468;BME280;37545;45.302;-122.946;2023-06-26T04:48:08;100997.66;;;24.29;29.84
51468;BME280;37545;45.302;-122.946;2023-06-26T04:50:36;100997.78;;;24.24;28.86
51468;BME280;37545;45.302;-122.946;2023-06-26T04:53:26;101001.63;;;24.09;28.59
51468;BME280;37545;45.302;-122.946;2023-06-26T04:55:55;101006.47;;;23.90;28.85
51468;BME280;37545;45.302;-122.946;2023-06-26T04:58:24;101007.47;;;23.85;29.05
51468;BME280;37545;45.302;-122.946;2023-06-26T05:00:52;101007.53;;;23.81;29.52
51468;BME280;37545;45.302;-122.946;2023-06-26T05:03:23;101016.38;;;23.79;28.77
51468;BME280;37545;45.302;-122.946;2023-06-26T05:05:51;101014.75;;;23.72;29.34
51468;BME280;37545;45.302;-122.946;2023-06-26T05:08:23;101010.44;;;23.66;28.83
51468;BME280;37545;45.302;-122.946;2023-06-26T05:10:52;101017.66;;;23.59;28.73
51468;BME280;37545;45.302;-122.946;2023-06-26T05:13:27;101016.94;;;23.51;28.97
51468;BME280;37545;45.302;-122.946;2023-06-26T05:15:55;101024.97;;;23.45;29.20
51468;BME280;37545;45.302;-122.946;2023-06-26T05:18:26;101022.50;;;23.36;29.37
51468;BME280;37545;45.302;-122.946;2023-06-26T05:20:55;101027.03;;;23.29;30.55
51468;BME280;37545;45.302;-122.946;2023-06-26T05:23:29;101025.38;;;23.25;30.51
51468;BME280;37545;45.302;-122.946;2023-06-26T05:26:01;101022.75;;;23.24;29.98
51468;BME280;37545;45.302;-122.946;2023-06-26T05:28:30;101022.81;;;23.20;31.27
51468;BME280;37545;45.302;-122.946;2023-06-26T05:30:59;101021.13;;;23.15;31.66
51468;BME280;37545;45.302;-122.946;2023-06-26T05:33:31;101020.34;;;23.10;31.70
51468;BME280;37545;45.302;-122.946;2023-06-26T05:36:04;101034.59;;;23.01;31.79
51468;BME280;37545;45.302;-122.946;2023-06-26T05:38:34;101037.34;;;22.93;31.70
51468;BME280;37545;45.302;-122.946;2023-06-26T05:41:03;101037.50;;;22.84;31.89
51468;BME280;37545;45.302;-122.946;2023-06-26T05:43:34;101042.00;;;22.77;31.76
51468;BME280;37545;45.302;-122.946;2023-06-26T05:46:03;101044.72;;;22.71;32.32
51468;BME280;37545;45.302;-122.946;2023-06-26T05:48:33;101039.59;;;22.62;33.25
51468;BME280;37545;45.302;-122.946;2023-06-26T05:51:02;101042.38;;;22.53;34.08
51468;BME280;37545;45.302;-122.946;2023-06-26T05:53:32;101043.44;;;22.43;34.34
51468;BME280;37545;45.302;-122.946;2023-06-26T05:56:01;101047.94;;;22.33;34.44
51468;BME280;37545;45.302;-122.946;2023-06-26T05:58:30;101044.56;;;22.23;34.13
51468;BME280;37545;45.302;-122.946;2023-06-26T06:00:59;101041.13;;;22.16;34.32
51468;BME280;37545;45.302;-122.946;2023-06-26T06:03:27;101047.34;;;22.11;34.96
51468;BME280;37545;45.302;-122.946;2023-06-26T06:06:01;101049.22;;;22.03;35.18
51468;BME280;37545;45.302;-122.946;2023-06-26T06:08:29;101048.44;;;21.94;34.78
51468;BME280;37545;45.302;-122.946;2023-06-26T06:10:59;101044.13;;;21.87;35.08
51468;BME280;37545;45.302;-122.946;2023-06-26T06:13:28;101041.59;;;21.81;35.67
51468;BME280;37545;45.302;-122.946;2023-06-26T06:15:56;101033.75;;;21.75;35.59
51468;BME280;37545;45.302;-122.946;2023-06-26T06:18:26;101044.34;;;21.72;36.50
51468;BME280;37545;45.302;-122.946;2023-06-26T06:20:54;101044.34;;;21.69;36.68
51468;BME280;37545;45.302;-122.946;2023-06-26T06:23:25;101050.53;;;21.66;36.58
51468;BME280;37545;45.302;-122.946;2023-06-26T06:25:53;101047.94;;;21.62;36.85
51468;BME280;37545;45.302;-122.946;2023-06-26T06:28:24;101037.50;;;21.56;37.21
51468;BME280;37545;45.302;-122.946;2023-06-26T06:30:53;101042.72;;;21.59;37.54
51468;BME280;37545;45.302;-122.946;2023-06-26T06:33:21;101054.13;;;21.58;38.80
51468;BME280;37545;45.302;-122.946;2023-06-26T06:35:50;101050.75;;;21.48;38.86
51468;BME280;37545;45.302;-122.946;2023-06-26T06:38:19;101047.28;;;21.43;38.36
51468;BME280;37545;45.302;-122.946;2023-06-26T06:40:49;101056.06;;;21.39;37.86
51468;BME280;37545;45.302;-122.946;2023-06-26T06:43:18;101051.72;;;21.36;38.79
51468;BME280;37545;45.302;-122.946;2023-06-26T06:45:46;101063.16;;;21.32;38.14
51468;BME280;37545;45.302;-122.946;2023-06-26T06:48:15;101064.09;;;21.25;38.70
51468;BME280;37545;45.302;-122.946;2023-06-26T06:50:43;101064.19;;;21.16;38.34
51468;BME280;37545;45.302;-122.946;2023-06-26T06:53:12;101069.50;;;21.09;38.90
51468;BME280;37545;45.302;-122.946;2023-06-26T06:55:41;101064.28;;;21.06;38.79
51468;BME280;37545;45.302;-122.946;2023-06-26T06:58:11;101066.94;;;21.00;39.03
51468;BME280;37545;45.302;-122.946;2023-06-26T07:00:39;101067.91;;;20.93;39.78
51468;BME280;37545;45.302;-122.946;2023-06-26T07:03:08;101066.25;;;20.80;40.56
51468;BME280;37545;45.302;-122.946;2023-06-26T07:05:37;101077.66;;;20.77;40.98
51468;BME280;37545;45.302;-122.946;2023-06-26T07:08:05;101075.06;;;20.73;40.47
51468;BME280;37545;45.302;-122.946;2023-06-26T07:10:34;101066.38;;;20.64;40.45
51468;BME280;37545;45.302;-122.946;2023-06-26T07:13:02;101066.41;;;20.58;40.82
51468;BME280;37545;45.302;-122.946;2023-06-26T07:15:33;101073.44;;;20.53;41.18
51468;BME280;37545;45.302;-122.946;2023-06-26T07:18:01;101071.69;;;20.49;41.25
51468;BME280;37545;45.302;-122.946;2023-06-26T07:20:30;101070.00;;;20.42;41.62
51468;BME280;37545;45.302;-122.946;2023-06-26T07:22:59;101079.66;;;20.35;44.15
51468;BME280;37545;45.302;-122.946;2023-06-26T07:25:27;101081.50;;;20.21;46.16
51468;BME280;37545;45.302;-122.946;2023-06-26T07:27:56;101068.44;;;20.04;48.16
51468;BME280;37545;45.302;-122.946;2023-06-26T07:30:25;101066.72;;;19.94;48.63
51468;BME280;37545;45.302;-122.946;2023-06-26T07:32:55;101075.53;;;19.86;48.80
51468;BME280;37545;45.302;-122.946;2023-06-26T07:35:23;101086.91;;;19.82;49.15
51468;BME280;37545;45.302;-122.946;2023-06-26T07:37:54;101080.81;;;19.73;51.44
51468;BME280;37545;45.302;-122.946;2023-06-26T07:40:22;101084.34;;;19.52;51.39
51468;BME280;37545;45.302;-122.946;2023-06-26T07:42:51;101086.13;;;19.40;52.85
51468;BME280;37545;45.302;-122.946;2023-06-26T07:45:20;101080.00;;;19.29;53.88
51468;BME280;37545;45.302;-122.946;2023-06-26T07:47:49;101075.66;;;19.13;55.05
51468;BME280;37545;45.302;-122.946;2023-06-26T07:50:19;101081.75;;;19.02;55.38
51468;BME280;37545;45.302;-122.946;2023-06-26T07:52:49;101083.50;;;18.97;56.18
51468;BME280;37545;45.302;-122.946;2023-06-26T07:55:19;101082.63;;;18.89;56.27
51468;BME280;37545;45.302;-122.946;2023-06-26T07:57:48;101090.50;;;18.78;56.73
51468;BME280;37545;45.302;-122.946;2023-06-26T08:00:18;101088.69;;;18.67;57.89
51468;BME280;37545;45.302;-122.946;2023-06-26T08:02:47;101087.78;;;18.55;58.52
51468;BME280;37545;45.302;-122.946;2023-06-26T08:05:15;101086.03;;;18.48;58.09
51468;BME280;37545;45.302;-122.946;2023-06-26T08:07:46;101090.38;;;18.38;59.31
51468;BME280;37545;45.302;-122.946;2023-06-26T08:10:14;101087.75;;;18.34;58.43
51468;BME280;37545;45.302;-122.946;2023-06-26T08:12:43;101085.13;;;18.29;60.58
51468;BME280;37545;45.302;-122.946;2023-06-26T08:15:14;101086.81;;;18.15;60.33
51468;BME280;37545;45.302;-122.946;2023-06-26T08:17:42;101079.81;;;18.11;60.14
51468;BME280;37545;45.302;-122.946;2023-06-26T08:20:12;101084.16;;;18.06;61.74
51468;BME280;37545;45.302;-122.946;2023-06-26T08:22:40;101090.25;;;17.98;61.71
51468;BME280;37545;45.302;-122.946;2023-06-26T08:25:11;101094.59;;;17.95;62.30
51468;BME280;37545;45.302;-122.946;2023-06-26T08:27:39;101092.81;;;17.88;61.65
51468;BME280;37545;45.302;-122.946;2023-06-26T08:30:09;101088.41;;;17.84;61.17
51468;BME280;37545;45.302;-122.946;2023-06-26T08:32:37;101089.31;;;17.83;61.50
51468;BME280;37545;45.302;-122.946;2023-06-26T08:35:07;101091.00;;;17.80;61.51
51468;BME280;37545;45.302;-122.946;2023-06-26T08:37:36;101089.19;;;17.67;62.46
51468;BME280;37545;45.302;-122.946;2023-06-26T08:40:07;101077.78;;;17.61;62.68
51468;BME280;37545;45.302;-122.946;2023-06-26T08:42:38;101085.63;;;17.56;60.91
51468;BME280;37545;45.302;-122.946;2023-06-26T08:45:08;101085.63;;;17.53;61.78
51468;BME280;37545;45.302;-122.946;2023-06-26T08:47:38;101096.03;;;17.47;62.09
51468;BME280;37545;45.302;-122.946;2023-06-26T08:50:10;101100.38;;;17.46;61.92
51468;BME280;37545;45.302;-122.946;2023-06-26T08:52:43;101096.88;;;17.41;61.50
51468;BME280;37545;45.302;-122.946;2023-06-26T08:55:15;101104.69;;;17.40;60.25
51468;BME280;37545;45.302;-122.946;2023-06-26T08:57:46;101094.22;;;17.36;61.07
51468;BME280;37545;45.302;-122.946;2023-06-26T09:00:16;101100.34;;;17.37;60.95
51468;BME280;37545;45.302;-122.946;2023-06-26T09:02:45;101095.06;;;17.35;60.44
51468;BME280;37545;45.302;-122.946;2023-06-26T09:05:14;101105.50;;;17.34;61.33
51468;BME280;37545;45.302;-122.946;2023-06-26T09:07:43;101104.63;;;17.30;60.19
51468;BME280;37545;45.302;-122.946;2023-06-26T09:10:11;101105.47;;;17.29;59.70
51468;BME280;37545;45.302;-122.946;2023-06-26T09:12:40;101102.00;;;17.27;60.44
51468;BME280;37545;45.302;-122.946;2023-06-26T09:15:14;101110.72;;;17.28;61.38
51468;BME280;37545;45.302;-122.946;2023-06-26T09:17:43;101112.44;;;17.26;61.39
51468;BME280;37545;45.302;-122.946;2023-06-26T09:20:12;101115.94;;;17.26;60.94
51468;BME280;37545;45.302;-122.946;2023-06-26T09:22:42;101102.84;;;17.23;62.55
51468;BME280;37545;45.302;-122.946;2023-06-26T09:25:11;101108.06;;;17.22;63.03
51468;BME280;37545;45.302;-122.946;2023-06-26T09:27:40;101109.78;;;17.18;63.97
51468;BME280;37545;45.302;-122.946;2023-06-26T09:30:17;101117.56;;;17.12;63.76
51468;BME280;37545;45.302;-122.946;2023-06-26T09:32:46;101120.13;;;17.06;63.91
51468;BME280;37545;45.302;-122.946;2023-06-26T09:35:17;101115.75;;;17.03;65.10
51468;BME280;37545;45.302;-122.946;2023-06-26T09:37:45;101109.59;;;16.96;64.85
51468;BME280;37545;45.302;-122.946;2023-06-26T09:40:14;101121.75;;;16.94;64.24
51468;BME280;37545;45.302;-122.946;2023-06-26T09:42:43;101115.66;;;16.91;64.94
51468;BME280;37545;45.302;-122.946;2023-06-26T09:45:20;101121.69;;;16.85;64.47
51468;BME280;37545;45.302;-122.946;2023-06-26T09:47:48;101125.06;;;16.78;66.51
51468;BME280;37545;45.302;-122.946;2023-06-26T09:50:24;101120.63;;;16.69;66.87
51468;BME280;37545;45.302;-122.946;2023-06-26T09:52:53;101114.44;;;16.63;66.70
51468;BME280;37545;45.302;-122.946;2023-06-26T09:55:22;101116.16;;;16.56;67.10
51468;BME280;37545;45.302;-122.946;2023-06-26T09:57:51;101119.56;;;16.52;68.17
51468;BME280;37545;45.302;-122.946;2023-06-26T10:00:24;101117.81;;;16.49;66.66
51468;BME280;37545;45.302;-122.946;2023-06-26T10:02:53;101116.00;;;16.47;67.44
51468;BME280;37545;45.302;-122.946;2023-06-26T10:05:22;101112.50;;;16.43;68.92
51468;BME280;37545;45.302;-122.946;2023-06-26T10:07:50;101115.03;;;16.37;67.26
51468;BME280;37545;45.302;-122.946;2023-06-26T10:10:21;101118.56;;;16.39;67.24
51468;BME280;37545;45.302;-122.946;2023-06-26T10:15:23;101122.91;;;16.39;65.28
51468;BME280;37545;45.302;-122.946;2023-06-26T10:17:56;101122.88;;;16.37;65.56
51468;BME280;37545;45.302;-122.946;2023-06-26T10:20:25;101126.38;;;16.39;64.98
51468;BME280;37545;45.302;-122.946;2023-06-26T10:22:55;101130.78;;;16.40;64.83
51468;BME280;37545;45.302;-122.946;2023-06-26T10:25:26;101124.66;;;16.38;64.91
51468;BME280;37545;45.302;-122.946;2023-06-26T10:27:58;101129.88;;;16.38;64.63
51468;BME280;37545;45.302;-122.946;2023-06-26T10:30:33;101122.91;;;16.39;64.68
51468;BME280;37545;45.302;-122.946;2023-06-26T10:33:03;101129.88;;;16.38;65.12
51468;BME280;37545;45.302;-122.946;2023-06-26T10:35:32;101129.00;;;16.39;64.86
51468;BME280;37545;45.302;-122.946;2023-06-26T10:38:01;101128.09;;;16.37;64.70
51468;BME280;37545;45.302;-122.946;2023-06-26T10:40:41;101130.66;;;16.32;65.41
51468;BME280;37545;45.302;-122.946;2023-06-26T10:43:12;101127.16;;;16.30;64.92
51468;BME280;37545;45.302;-122.946;2023-06-26T10:45:46;101128.00;;;16.28;63.94
51468;BME280;37545;45.302;-122.946;2023-06-26T10:48:18;101123.66;;;16.27;63.11
51468;BME280;37545;45.302;-122.946;2023-06-26T10:50:48;101127.09;;;16.24;62.94
51468;BME280;37545;45.302;-122.946;2023-06-26T10:53:22;101119.22;;;16.20;62.75
51468;BME280;37545;45.302;-122.946;2023-06-26T10:55:56;101129.69;;;16.23;62.73
51468;BME280;37545;45.302;-122.946;2023-06-26T11:01:22;101136.63;;;16.22;62.95
51468;BME280;37545;45.302;-122.946;2023-06-26T11:04:03;101134.81;;;16.17;68.22
51468;BME280;37545;45.302;-122.946;2023-06-26T11:06:32;101143.34;;;16.03;69.35
51468;BME280;37545;45.302;-122.946;2023-06-26T11:09:06;101135.44;;;15.97;70.31
51468;BME280;37545;45.302;-122.946;2023-06-26T11:11:59;101134.44;;;15.89;70.00
51468;BME280;37545;45.302;-122.946;2023-06-26T11:14:31;101141.38;;;15.87;69.79
51468;BME280;37545;45.302;-122.946;2023-06-26T11:17:07;101137.03;;;15.86;70.40
51468;BME280;37545;45.302;-122.946;2023-06-26T11:19:37;101143.06;;;15.82;69.96
51468;BME280;37545;45.302;-122.946;2023-06-26T11:22:12;101143.03;;;15.80;69.95
51468;BME280;37545;45.302;-122.946;2023-06-26T11:24:44;101139.53;;;15.80;69.79
51468;BME280;37545;45.302;-122.946;2023-06-26T11:27:14;101139.47;;;15.75;69.40
51468;BME280;37545;45.302;-122.946;2023-06-26T11:29:48;101145.44;;;15.68;70.75
51468;BME280;37545;45.302;-122.946;2023-06-26T11:32:18;101151.38;;;15.58;70.86
51468;BME280;37545;45.302;-122.946;2023-06-26T11:34:48;101152.94;;;15.48;71.21
51468;BME280;37545;45.302;-122.946;2023-06-26T11:37:17;101149.41;;;15.43;71.46
51468;BME280;37545;45.302;-122.946;2023-06-26T11:39:46;101153.75;;;15.42;72.07
51468;BME280;37545;45.302;-122.946;2023-06-26T11:42:14;101151.09;;;15.41;71.30
51468;BME280;37545;45.302;-122.946;2023-06-26T11:44:44;101145.00;;;15.40;71.17
51468;BME280;37545;45.302;-122.946;2023-06-26T11:47:18;101160.63;;;15.39;71.24
51468;BME280;37545;45.302;-122.946;2023-06-26T11:49:47;101160.63;;;15.37;71.28
51468;BME280;37545;45.302;-122.946;2023-06-26T11:52:16;101157.94;;;15.33;71.00
51468;BME280;37545;45.302;-122.946;2023-06-26T11:54:45;101160.38;;;15.23;71.83
51468;BME280;37545;45.302;-122.946;2023-06-26T11:57:16;101161.16;;;15.18;72.80
51468;BME280;37545;45.302;-122.946;2023-06-26T11:59:45;101163.72;;;15.16;73.43
51468;BME280;37545;45.302;-122.946;2023-06-26T12:02:14;101151.41;;;15.06;75.19
51468;BME280;37545;45.302;-122.946;2023-06-26T12:04:45;101160.78;;;14.98;75.77
51468;BME280;37545;45.302;-122.946;2023-06-26T12:07:14;101158.09;;;14.92;75.21
51468;BME280;37545;45.302;-122.946;2023-06-26T12:09:46;101162.44;;;14.93;75.97
51468;BME280;37545;45.302;-122.946;2023-06-26T12:12:17;101165.00;;;14.90;76.57
51468;BME280;37545;45.302;-122.946;2023-06-26T12:14:46;101169.25;;;14.84;77.17
51468;BME280;37545;45.302;-122.946;2023-06-26T12:17:15;101169.19;;;14.81;77.80
51468;BME280;37545;45.302;-122.946;2023-06-26T12:19:46;101179.50;;;14.75;78.16
51468;BME280;37545;45.302;-122.946;2023-06-26T12:22:16;101182.03;;;14.71;78.35
51468;BME280;37545;45.302;-122.946;2023-06-26T12:24:46;101177.69;;;14.71;78.38
51468;BME280;37545;45.302;-122.946;2023-06-26T12:27:15;101188.03;;;14.68;77.74
51468;BME280;37545;45.302;-122.946;2023-06-26T12:29:50;101185.41;;;14.66;79.02
51468;BME280;37545;45.302;-122.946;2023-06-26T12:32:21;101189.75;;;14.66;79.44
51468;BME280;37545;45.302;-122.946;2023-06-26T12:34:52;101185.31;;;14.62;79.52
51468;BME280;37545;45.302;-122.946;2023-06-26T12:37:21;101184.41;;;14.60;79.52
51468;BME280;37545;45.302;-122.946;2023-06-26T12:39:50;101185.28;;;14.60;79.19